Time;durP1;ratioP1;P1;durP2;ratioP2;P2;SDS_P1;SDS_P2;PMS_P1;PMS_P2;Temp;Humidity;BMP_temperature;BMP_pressure;BME280_temperature;BME280_humidity;BME280_pressure;Samples;Min_cycle;Max_cycle;Signal;HPM_P1;HPM_P2
2022/12/29 00:01:42;;;;;;;11.60;7.03;;;;;;;4.65;60.92;101203.78;1704800;84;21123;-68
2022/12/29 00:04:12;;;;;;;12.47;7.30;;;;;;;4.67;60.67;101200.44;1704267;84;21521;-69
2022/12/29 00:06:38;;;;;;;12.45;7.25;;;;;;;4.67;60.60;101200.92;1704669;82;21036;-68
2022/12/29 00:09:05;;;;;;;9.80;6.60;;;;;;;4.70;60.42;101206.65;1704944;82;21153;-68
2022/12/29 00:11:36;;;;;;;13.13;6.37;;;;;;;4.73;60.32;101206.73;1704147;82;21083;-69
2022/12/29 00:16:49;;;;;;;11.20;6.22;;;;;;;4.75;59.98;101207.87;1704730;82;21201;-69
2022/12/29 00:36:09;;;;;;;9.55;5.70;;;;;;;4.92;58.41;101197.98;1711501;83;21041;-69
2022/12/29 00:44:12;;;;;;;8.70;5.12;;;;;;;4.99;57.82;101187.39;1709955;82;21818;-68
2022/12/29 00:46:41;;;;;;;10.03;5.40;;;;;;;5.01;57.71;101182.72;1681852;83;21090;-68
2022/12/29 00:49:30;;;;;;;10.70;5.58;;;;;;;5.03;57.59;101183.31;1681151;84;21079;-68
2022/12/29 00:52:07;;;;;;;10.20;5.90;;;;;;;5.03;57.51;101182.50;1682782;85;21607;-69
2022/12/29 00:54:38;;;;;;;7.85;5.12;;;;;;;5.03;57.35;101177.20;1682684;85;21065;-69
2022/12/29 00:57:07;;;;;;;10.75;5.58;;;;;;;5.05;57.39;101175.99;1710029;83;21447;-69
2022/12/29 00:59:39;;;;;;;10.40;5.92;;;;;;;5.08;57.35;101171.61;1682370;83;21058;-67
2022/12/29 01:02:06;;;;;;;9.05;5.10;;;;;;;5.10;57.26;101180.18;1704350;82;21081;-70
2022/12/29 01:04:33;;;;;;;10.10;5.17;;;;;;;5.08;57.18;101166.83;1709378;83;21101;-68
2022/12/29 01:07:00;;;;;;;10.23;5.60;;;;;;;5.09;57.13;101165.80;1707178;82;21044;-69
2022/12/29 01:12:40;;;;;;;7.75;5.12;;;;;;;5.10;57.08;101162.13;1704410;84;21015;-70
2022/12/29 01:14:51;;;;;;;9.98;5.15;;;;;;;5.09;56.96;101153.89;1700966;84;21067;-68
2022/12/29 01:17:20;;;;;;;10.35;5.70;;;;;;;5.07;56.96;101160.73;1704453;84;21076;-70
2022/12/29 01:19:47;;;;;;;9.00;5.78;;;;;;;5.05;56.92;101157.97;1674599;84;20979;-70
2022/12/29 01:22:14;;;;;;;10.25;5.83;;;;;;;5.03;56.92;101152.86;1704909;82;21152;-69
2022/12/29 01:24:41;;;;;;;9.48;5.95;;;;;;;5.04;56.83;101152.38;1675991;84;21555;-70
2022/12/29 01:27:08;;;;;;;9.08;5.70;;;;;;;4.99;56.75;101144.23;1704303;84;20985;-69
2022/12/29 01:29:34;;;;;;;9.75;5.30;;;;;;;4.98;56.82;101143.94;1701020;82;21090;-69
2022/12/29 01:32:01;;;;;;;9.70;6.40;;;;;;;4.97;56.79;101153.72;1702926;82;21049;-69
2022/12/29 01:34:28;;;;;;;9.93;5.70;;;;;;;4.94;56.77;101149.64;1694405;82;21172;-69
2022/12/29 01:36:55;;;;;;;10.08;6.22;;;;;;;4.93;56.69;101146.66;1697292;82;20947;-69
2022/12/29 01:39:24;;;;;;;9.13;6.03;;;;;;;4.90;56.68;101143.13;1704877;82;21011;-68
2022/12/29 01:41:59;;;;;;;9.38;5.90;;;;;;;4.90;56.66;101139.16;1704901;82;21026;-72
2022/12/29 01:44:55;;;;;;;9.68;5.95;;;;;;;4.89;56.54;101138.02;1695520;82;21146;-69
2022/12/29 01:47:42;;;;;;;10.68;6.00;;;;;;;4.90;56.56;101121.95;1704451;84;21813;-68
2022/12/29 01:50:21;;;;;;;9.45;5.60;;;;;;;4.89;56.28;101118.17;1704952;84;20983;-68
2022/12/29 01:52:53;;;;;;;9.50;5.47;;;;;;;4.89;56.16;101112.88;1701831;82;21054;-69
2022/12/29 01:55:20;;;;;;;9.93;6.00;;;;;;;4.89;56.20;101107.59;1685394;84;21118;-70
2022/12/29 01:57:49;;;;;;;10.37;5.40;;;;;;;4.87;56.32;101114.42;1467533;84;10000124;-69
2022/12/29 02:00:16;;;;;;;11.55;5.37;;;;;;;4.87;55.98;101108.29;1703377;84;21612;-69
2022/12/29 02:02:51;;;;;;;9.58;5.40;;;;;;;4.85;55.97;101108.51;1702889;82;21129;-67
2022/12/29 02:05:51;;;;;;;9.68;5.70;;;;;;;4.84;55.80;101102.92;1704119;84;21117;-69
2022/12/29 02:08:21;;;;;;;9.28;5.20;;;;;;;4.81;55.68;101098.03;1696482;82;21042;-69
2022/12/29 02:10:48;;;;;;;9.43;5.00;;;;;;;4.78;55.59;101097.63;1696020;84;21059;-69
2022/12/29 02:13:17;;;;;;;9.60;5.80;;;;;;;4.72;55.34;101092.64;1704102;84;21006;-68
2022/12/29 02:16:17;;;;;;;7.95;4.87;;;;;;;4.68;55.29;101092.75;1704159;84;21108;-68
2022/12/29 02:19:07;;;;;;;8.08;4.75;;;;;;;4.65;55.34;101090.00;1716360;83;21641;-68
2022/12/29 02:22:14;;;;;;;8.88;5.20;;;;;;;4.63;55.33;101093.34;1715647;82;21056;-70
2022/12/29 02:25:02;;;;;;;8.80;5.28;;;;;;;4.59;55.36;101090.81;1666722;84;21136;-67
2022/12/29 02:27:43;;;;;;;9.15;5.15;;;;;;;4.55;55.29;101090.11;1691178;82;21706;-68
2022/12/29 02:30:35;;;;;;;9.23;5.37;;;;;;;4.50;55.34;101089.38;1707132;82;21104;-68
2022/12/29 02:33:42;;;;;;;7.95;5.05;;;;;;;4.45;55.39;101079.42;1715398;83;27015;-68
2022/12/29 02:36:24;;;;;;;8.98;4.97;;;;;;;4.43;55.41;101080.13;1687824;83;21128;-68
2022/12/29 02:39:17;;;;;;;8.70;4.90;;;;;;;4.41;55.52;101078.22;1711628;83;21738;-68
2022/12/29 02:41:55;;;;;;;8.73;4.90;;;;;;;4.40;55.49;101080.53;1703989;82;20946;-69
2022/12/29 02:45:01;;;;;;;8.75;5.20;;;;;;;4.38;55.51;101079.94;1713381;83;21016;-68
2022/12/29 02:47:58;;;;;;;9.78;4.67;;;;;;;4.39;55.54;101084.20;1716536;83;21258;-68
2022/12/29 02:50:38;;;;;;;7.55;4.95;;;;;;;4.40;55.47;101077.89;1703542;82;21097;-68
2022/12/29 02:53:12;;;;;;;9.83;5.10;;;;;;;4.40;55.45;101072.59;1702640;84;21066;-71
2022/12/29 02:55:40;;;;;;;8.03;4.60;;;;;;;4.42;55.44;101063.96;1703855;84;21065;-67
2022/12/29 02:58:20;;;;;;;8.70;5.50;;;;;;;4.45;55.32;101069.36;1697432;84;21056;-68
2022/12/29 03:01:08;;;;;;;9.13;5.20;;;;;;;4.49;55.30;101068.44;1699198;82;21713;-68
2022/12/29 03:03:47;;;;;;;9.08;4.90;;;;;;;4.53;55.26;101070.46;1702994;84;21054;-68
2022/12/29 03:06:51;;;;;;;10.55;5.03;;;;;;;4.58;55.19;101065.39;1701385;82;21059;-69
2022/12/29 03:09:37;;;;;;;9.20;5.15;;;;;;;4.61;55.08;101052.27;1679595;84;21062;-68
2022/12/29 03:12:09;;;;;;;9.73;5.40;;;;;;;4.64;54.98;101050.02;1674033;84;21607;-68
2022/12/29 03:17:55;;;;;;;9.13;5.10;;;;;;;4.72;54.86;101050.82;1708644;83;21536;-69
2022/12/29 03:20:36;;;;;;;8.45;4.60;;;;;;;4.72;54.80;101035.75;1709192;83;21014;-68
2022/12/29 03:23:04;;;;;;;8.58;5.25;;;;;;;4.77;54.77;101031.15;1708660;83;21069;-69
2022/12/29 03:25:39;;;;;;;10.53;5.25;;;;;;;4.77;54.71;101024.05;1680371;83;21102;-69
2022/12/29 03:28:15;;;;;;;8.80;5.30;;;;;;;4.79;54.68;101019.86;1702382;82;21162;-68
2022/12/29 03:30:43;;;;;;;8.50;5.22;;;;;;;4.77;54.61;101020.56;1708466;83;21058;-69
2022/12/29 03:33:12;;;;;;;8.58;5.30;;;;;;;4.78;54.59;101023.02;1708157;82;21656;-69
2022/12/29 03:35:40;;;;;;;8.13;5.17;;;;;;;4.78;54.55;101020.89;1700301;83;21474;-69
2022/12/29 03:38:19;;;;;;;8.00;5.03;;;;;;;4.76;54.44;101026.88;1709917;83;21168;-69
2022/12/29 03:40:51;;;;;;;7.08;4.60;;;;;;;4.76;54.48;101025.05;1708960;83;21592;-69
2022/12/29 03:43:17;;;;;;;8.63;4.47;;;;;;;4.74;54.43;101024.95;1707866;82;21018;-67
2022/12/29 03:45:45;;;;;;;8.43;5.12;;;;;;;4.70;54.40;101025.87;1708586;82;21064;-68
2022/12/29 03:48:12;;;;;;;8.00;4.95;;;;;;;4.66;54.36;101031.28;1709448;83;21063;-68
2022/12/29 03:50:41;;;;;;;7.90;4.97;;;;;;;4.63;54.43;101027.20;1709013;83;21116;-69
2022/12/29 03:53:07;;;;;;;9.48;5.25;;;;;;;4.61;54.48;101031.09;1710403;82;21799;-68
2022/12/29 03:55:34;;;;;;;8.75;5.17;;;;;;;4.07;55.30;101034.24;1708833;83;21022;-68
2022/12/29 03:58:01;;;;;;;8.13;4.75;;;;;;;4.47;54.74;101026.30;1708157;82;21251;-69
2022/12/29 04:00:32;;;;;;;8.88;4.60;;;;;;;4.51;54.64;101025.38;1703238;82;21030;-69
2022/12/29 04:02:58;;;;;;;9.13;4.50;;;;;;;4.48;54.67;101020.02;1709112;82;21585;-70
2022/12/29 04:05:25;;;;;;;9.28;5.28;;;;;;;4.44;54.71;101020.09;1709212;83;21099;-69
2022/12/29 04:07:54;;;;;;;7.50;4.37;;;;;;;4.41;54.79;101018.70;1708772;82;21077;-69
2022/12/29 04:10:20;;;;;;;7.65;4.40;;;;;;;4.38;54.85;101027.56;1706667;83;21078;-68
2022/12/29 04:12:49;;;;;;;8.85;5.03;;;;;;;4.33;54.87;101020.73;1708939;83;21589;-70
2022/12/29 04:15:16;;;;;;;8.85;5.40;;;;;;;4.29;54.92;101022.97;1708816;82;21560;-70
2022/12/29 04:17:43;;;;;;;9.53;5.17;;;;;;;4.27;55.01;101016.25;1709047;83;21590;-70
2022/12/29 04:23:01;;;;;;;9.30;5.05;;;;;;;4.25;55.13;101013.83;1709370;83;21755;-68
2022/12/29 04:25:27;;;;;;;8.18;5.12;;;;;;;4.21;55.20;101015.23;1683372;82;21171;-70
2022/12/29 04:27:54;;;;;;;10.20;5.60;;;;;;;4.21;55.26;101013.42;1701263;82;21094;-69
2022/12/29 04:30:25;;;;;;;7.40;5.10;;;;;;;4.21;55.26;101016.06;1703889;82;21160;-69
2022/12/29 04:32:59;;;;;;;9.18;4.83;;;;;;;4.22;55.31;101008.95;1706288;83;21200;-68
2022/12/29 04:35:28;;;;;;;10.23;5.65;;;;;;;4.23;55.31;101006.59;1708151;82;21684;-68
2022/12/29 04:37:55;;;;;;;9.43;5.47;;;;;;;4.23;55.34;101017.17;1708926;83;21062;-69
2022/12/29 04:40:23;;;;;;;8.78;4.30;;;;;;;4.21;55.36;101016.06;1708932;83;21132;-68
2022/12/29 04:42:50;;;;;;;7.75;5.37;;;;;;;4.21;55.35;101010.78;1702446;82;21159;-69
2022/12/29 04:45:19;;;;;;;8.08;5.03;;;;;;;4.21;55.38;101019.19;1701902;82;21042;-69
2022/12/29 04:47:53;;;;;;;9.10;5.42;;;;;;;4.21;55.47;101017.88;1708256;83;21014;-69
2022/12/29 04:50:23;;;;;;;9.73;5.42;;;;;;;4.20;55.52;101022.34;1709154;82;21038;-69
2022/12/29 04:53:07;;;;;;;9.65;5.30;;;;;;;4.20;55.57;101018.90;1708390;82;21071;-68
2022/12/29 04:55:34;;;;;;;9.10;5.50;;;;;;;4.22;55.63;101015.04;1703928;82;21782;-67
2022/12/29 04:58:02;;;;;;;10.48;5.40;;;;;;;4.26;55.67;101017.28;1710049;83;20955;-68
2022/12/29 05:00:31;;;;;;;10.53;6.15;;;;;;;4.28;55.62;101009.45;1710121;82;20979;-68
2022/12/29 05:02:57;;;;;;;10.70;6.00;;;;;;;4.33;55.64;101006.19;1700984;82;21114;-68
2022/12/29 05:05:25;;;;;;;11.45;5.55;;;;;;;4.36;55.67;101007.10;1692458;82;21077;-68
2022/12/29 05:07:52;;;;;;;9.70;6.05;;;;;;;4.40;55.63;101002.51;1710746;82;21136;-69
2022/12/29 05:10:19;;;;;;;11.12;5.70;;;;;;;4.42;55.64;101012.39;1707815;82;20979;-68
2022/12/29 05:12:46;;;;;;;10.07;6.18;;;;;;;4.45;55.65;101002.72;1583466;82;9999885;-68
2022/12/29 05:15:13;;;;;;;12.53;6.50;;;;;;;4.46;55.65;101012.27;1565701;85;10000187;-68
2022/12/29 05:17:40;;;;;;;9.48;5.83;;;;;;;4.44;55.58;101011.68;1708046;83;21074;-68
2022/12/29 05:20:08;;;;;;;11.65;6.17;;;;;;;4.44;55.63;101010.36;1709208;82;20982;-68
2022/12/29 05:22:36;;;;;;;10.00;6.03;;;;;;;4.43;55.65;100999.45;1706876;82;21046;-69
2022/12/29 05:25:05;;;;;;;11.22;6.62;;;;;;;4.41;55.66;101005.48;1694999;82;21136;-68
2022/12/29 05:27:34;;;;;;;11.85;5.87;;;;;;;4.37;55.71;100998.95;1712651;83;21130;-68
2022/12/29 05:30:12;;;;;;;9.48;6.17;;;;;;;4.37;55.70;101000.78;1709945;83;21091;-69
2022/12/29 05:32:39;;;;;;;11.50;6.72;;;;;;;4.34;55.75;101009.94;1715737;82;21042;-68
2022/12/29 05:35:08;;;;;;;9.60;6.35;;;;;;;4.31;55.80;101015.66;1701253;83;21086;-68
2022/12/29 05:50:49;;;;;;;13.83;7.13;;;;;;;4.67;55.88;101017.02;1761612;80;22238;-68
2022/12/29 05:53:18;;;;;;;11.18;6.85;;;;;;;4.65;55.74;101024.37;1790780;80;20939;-69
2022/12/29 05:55:48;;;;;;;9.63;6.62;;;;;;;4.64;55.68;101025.36;1782511;80;21044;-68
2022/12/29 05:58:16;;;;;;;10.65;7.10;;;;;;;4.63;55.65;101027.72;1765375;80;21446;-68
2022/12/29 06:00:44;;;;;;;10.85;6.87;;;;;;;4.58;55.65;101013.80;1558765;78;10000127;-69
2022/12/29 06:03:12;;;;;;;10.80;7.10;;;;;;;4.57;55.77;101016.63;1775319;79;26709;-68
2022/12/29 06:05:38;;;;;;;10.75;7.12;;;;;;;4.58;55.71;101010.34;1778398;80;24720;-69
2022/12/29 06:08:05;;;;;;;11.38;7.00;;;;;;;4.56;55.74;101009.72;1764482;80;20958;-68
2022/12/29 06:10:32;;;;;;;12.03;7.47;;;;;;;4.56;55.78;101012.37;1768180;80;21100;-68
2022/12/29 06:13:05;;;;;;;8.48;5.53;;;;;;;4.58;55.80;100999.77;1777256;80;21029;-68
2022/12/29 06:15:33;;;;;;;12.50;7.20;;;;;;;4.60;55.81;100993.22;1765392;80;21854;-68
2022/12/29 06:18:00;;;;;;;11.55;6.87;;;;;;;4.61;55.82;100991.41;1765559;78;20967;-68
2022/12/29 06:20:27;;;;;;;11.38;7.22;;;;;;;4.62;55.82;101003.09;1760405;78;20996;-68
2022/12/29 06:22:54;;;;;;;11.10;7.08;;;;;;;4.62;55.80;100995.16;1766986;78;21029;-68
2022/12/29 06:25:21;;;;;;;11.12;7.95;;;;;;;4.60;55.80;100993.22;1766658;80;21531;-68
2022/12/29 06:27:48;;;;;;;11.55;7.50;;;;;;;4.61;55.84;100984.28;1789537;78;21346;-68
2022/12/29 06:30:16;;;;;;;12.90;7.47;;;;;;;4.61;55.84;100989.58;1789483;80;21021;-68
2022/12/29 06:32:45;;;;;;;12.70;8.13;;;;;;;4.61;55.83;100994.87;1786073;78;20997;-68
2022/12/29 06:35:13;;;;;;;13.00;8.68;;;;;;;4.60;55.84;101009.09;1647450;78;9999949;-68
2022/12/29 06:37:43;;;;;;;13.75;8.33;;;;;;;4.59;55.79;101012.77;1782676;79;21160;-68
2022/12/29 06:40:11;;;;;;;15.18;8.58;;;;;;;4.57;55.81;101011.34;1774655;79;21053;-67
2022/12/29 06:42:56;;;;;;;13.55;7.37;;;;;;;4.57;55.88;101011.34;1777943;79;21057;-67
2022/12/29 06:45:41;;;;;;;13.98;8.25;;;;;;;4.60;55.86;101007.77;1762613;79;21034;-67
2022/12/29 06:48:08;;;;;;;14.38;8.88;;;;;;;4.61;55.83;101016.03;1757680;80;21001;-68
2022/12/29 06:50:35;;;;;;;13.35;9.00;;;;;;;4.64;55.83;101012.98;1758928;79;21760;-68
2022/12/29 06:53:01;;;;;;;15.30;9.05;;;;;;;4.65;55.80;101010.63;1767404;80;21021;-67
2022/12/29 06:55:29;;;;;;;13.37;8.70;;;;;;;4.67;55.77;101012.56;1654582;78;9999706;-68
2022/12/29 06:57:56;;;;;;;13.57;8.23;;;;;;;4.69;55.76;101013.67;1775175;79;20954;-68
2022/12/29 07:00:26;;;;;;;13.23;8.50;;;;;;;4.71;55.79;101014.28;1758888;79;20998;-68
2022/12/29 07:02:55;;;;;;;13.32;8.38;;;;;;;4.75;55.76;101013.36;1749341;81;20985;-68
2022/12/29 07:05:22;;;;;;;13.27;8.37;;;;;;;4.76;55.70;101015.78;1642688;78;10000242;-68
2022/12/29 07:07:49;;;;;;;12.88;8.75;;;;;;;4.81;55.72;101016.51;1773900;79;20943;-68
2022/12/29 07:10:16;;;;;;;14.98;8.48;;;;;;;4.85;55.76;101017.20;1766334;80;21913;-68
2022/12/29 07:12:45;;;;;;;14.05;8.93;;;;;;;4.93;55.74;101018.80;1778983;80;22096;-68
2022/12/29 07:15:12;;;;;;;15.38;8.83;;;;;;;5.01;55.70;101017.26;1764851;79;21010;-69
2022/12/29 07:17:39;;;;;;;14.63;9.00;;;;;;;5.08;55.51;101019.88;1785251;79;21051;-69
2022/12/29 07:20:07;;;;;;;15.30;9.10;;;;;;;5.13;55.47;101011.62;1769920;79;21049;-69
2022/12/29 07:22:34;;;;;;;13.85;8.63;;;;;;;5.20;55.37;101013.41;1770444;80;21090;-69
2022/12/29 07:25:00;;;;;;;11.18;8.30;;;;;;;5.27;55.35;101007.08;1785546;80;20947;-69
2022/12/29 07:27:27;;;;;;;13.70;8.80;;;;;;;5.33;55.15;101007.56;1788283;80;20951;-69
2022/12/29 07:29:53;;;;;;;12.82;8.40;;;;;;;5.38;54.92;101019.65;1773568;80;21092;-69
2022/12/29 07:32:20;;;;;;;15.35;8.75;;;;;;;5.39;54.74;101032.38;1768815;80;21026;-69
2022/12/29 07:34:47;;;;;;;12.78;7.83;;;;;;;5.38;54.51;101028.11;1783620;80;21816;-69
2022/12/29 07:37:17;;;;;;;12.53;7.92;;;;;;;5.37;54.41;101017.22;1770559;80;21466;-69
2022/12/29 07:39:43;;;;;;;11.80;8.23;;;;;;;5.37;54.41;101012.73;1760476;80;21081;-68
2022/12/29 07:42:11;;;;;;;11.60;7.90;;;;;;;5.43;54.42;101006.27;1788044;80;21535;-67
2022/12/29 07:44:39;;;;;;;12.40;7.95;;;;;;;5.48;54.31;101006.47;1766846;80;21028;-68
2022/12/29 07:47:14;;;;;;;11.35;7.83;;;;;;;5.51;54.13;101006.84;1786028;80;21116;-68
2022/12/29 07:49:42;;;;;;;10.90;7.37;;;;;;;5.54;54.03;101005.10;1787363;80;21065;-68
2022/12/29 07:52:08;;;;;;;12.47;7.42;;;;;;;5.58;54.00;101008.95;1787942;80;21073;-68
2022/12/29 07:54:35;;;;;;;14.15;7.83;;;;;;;5.62;53.75;101003.52;1783232;80;21525;-68
2022/12/29 07:57:01;;;;;;;13.15;7.95;;;;;;;5.68;53.76;100988.61;1767806;80;21057;-68
2022/12/29 07:59:28;;;;;;;14.07;8.05;;;;;;;5.81;53.88;100985.86;1786459;80;21776;-68
2022/12/29 08:01:54;;;;;;;11.22;7.50;;;;;;;5.97;53.84;100987.73;1763796;80;21013;-68
2022/12/29 08:04:21;;;;;;;13.20;8.40;;;;;;;6.10;53.51;100986.30;1775397;80;21117;-68
2022/12/29 08:06:48;;;;;;;13.58;8.10;;;;;;;6.21;53.42;100990.89;1786326;80;20997;-68
2022/12/29 08:09:14;;;;;;;12.85;8.23;;;;;;;6.28;52.96;100990.31;1765003;79;21077;-69
2022/12/29 08:11:42;;;;;;;12.37;7.92;;;;;;;6.33;52.87;100987.83;1773485;80;21516;-68
2022/12/29 08:14:09;;;;;;;12.30;8.28;;;;;;;6.38;52.75;100981.86;1784266;80;21034;-69
2022/12/29 08:16:35;;;;;;;12.07;8.08;;;;;;;6.43;52.54;100983.35;1783043;78;21105;-68
2022/12/29 08:19:03;;;;;;;12.90;8.13;;;;;;;6.45;52.40;100983.95;1785518;80;21014;-68
2022/12/29 08:21:30;;;;;;;11.75;7.37;;;;;;;6.48;52.31;100982.20;1783477;80;21049;-68
2022/12/29 08:23:56;;;;;;;12.75;8.55;;;;;;;6.50;51.98;100993.91;1783955;80;21501;-68
2022/12/29 08:26:23;;;;;;;10.18;7.22;;;;;;;6.50;51.95;100982.77;1768567;80;20990;-69
2022/12/29 08:28:51;;;;;;;13.10;7.42;;;;;;;6.55;52.00;100984.78;1778335;78;21532;-69
2022/12/29 08:31:18;;;;;;;12.23;7.85;;;;;;;6.60;51.95;100982.27;1775094;79;21406;-69
2022/12/29 08:33:44;;;;;;;11.70;7.58;;;;;;;6.66;51.86;100985.38;1779804;78;21324;-68
2022/12/29 08:36:11;;;;;;;11.63;7.30;;;;;;;6.75;51.76;100979.27;1782647;80;21553;-70
2022/12/29 08:38:38;;;;;;;10.98;7.15;;;;;;;6.83;51.49;100976.82;1783072;80;21001;-69
2022/12/29 08:41:05;;;;;;;10.53;7.03;;;;;;;6.88;51.16;100975.13;1762144;78;21010;-68
2022/12/29 08:43:33;;;;;;;15.45;7.45;;;;;;;6.94;50.92;100973.41;1746276;78;21081;-69
2022/12/29 08:46:00;;;;;;;12.78;7.85;;;;;;;6.97;50.60;100975.63;1764905;78;21085;-69
2022/12/29 08:48:26;;;;;;;12.13;7.78;;;;;;;6.95;50.62;100969.75;1766932;78;21237;-68
2022/12/29 08:50:53;;;;;;;9.98;6.75;;;;;;;6.98;50.35;100967.97;1770618;78;20979;-69
2022/12/29 08:53:20;;;;;;;12.37;7.87;;;;;;;6.98;50.20;100972.77;1777855;78;21508;-68
2022/12/29 08:55:47;;;;;;;12.80;7.95;;;;;;;6.88;49.79;100984.91;1780866;80;21033;-68
2022/12/29 08:58:16;;;;;;;11.08;7.10;;;;;;;6.75;50.05;100988.03;1768052;78;21074;-68
2022/12/29 09:00:44;;;;;;;13.03;8.40;;;;;;;6.71;50.10;100984.70;1774085;78;21203;-68
2022/12/29 09:03:10;;;;;;;13.72;8.28;;;;;;;6.67;50.30;100978.22;1759724;80;20943;-69
2022/12/29 09:05:37;;;;;;;11.50;7.47;;;;;;;6.67;50.46;100975.04;1784900;78;20944;-68
2022/12/29 09:08:04;;;;;;;14.93;8.30;;;;;;;6.68;50.28;100974.03;1775863;80;20987;-70
2022/12/29 09:10:30;;;;;;;12.95;8.00;;;;;;;6.64;50.38;100975.48;1770240;80;21070;-69
2022/12/29 09:12:59;;;;;;;12.00;7.80;;;;;;;6.67;50.52;100974.23;1761848;80;21466;-69
2022/12/29 09:15:26;;;;;;;12.70;8.68;;;;;;;6.69;50.42;100969.00;1773615;79;20986;-69
2022/12/29 09:17:52;;;;;;;12.93;8.40;;;;;;;6.71;50.35;100970.09;1765267;78;21537;-69
2022/12/29 09:20:19;;;;;;;15.00;8.70;;;;;;;6.23;51.11;100975.58;1774216;79;20931;-69
2022/12/29 09:22:46;;;;;;;11.63;7.67;;;;;;;5.89;52.08;100972.88;1777151;79;21053;-70
2022/12/29 09:25:13;;;;;;;14.15;7.72;;;;;;;5.84;52.45;100970.86;1770245;80;21104;-69
2022/12/29 09:27:41;;;;;;;11.78;7.28;;;;;;;5.79;52.50;100964.08;1771990;79;21038;-66
2022/12/29 09:30:10;;;;;;;12.33;7.42;;;;;;;5.74;52.77;100962.58;1775447;79;20979;-68
2022/12/29 09:32:37;;;;;;;10.95;6.62;;;;;;;5.74;53.03;100959.92;1777470;80;20955;-70
2022/12/29 09:35:05;;;;;;;12.65;7.25;;;;;;;5.77;53.10;100960.82;1780963;80;21022;-68
2022/12/29 09:37:31;;;;;;;15.05;8.48;;;;;;;6.52;51.54;100960.01;1771636;80;21143;-68
2022/12/29 09:39:58;;;;;;;12.93;7.75;;;;;;;6.57;51.00;100949.01;1748212;80;21066;-68
2022/12/29 09:42:55;;;;;;;13.93;8.63;;;;;;;6.53;50.94;100941.72;1781475;80;21553;-68
2022/12/29 09:45:39;;;;;;;15.60;9.23;;;;;;;6.53;50.96;100950.48;1770621;80;21559;-69
2022/12/29 09:48:14;;;;;;;15.32;8.85;;;;;;;6.55;51.10;100942.32;1784911;80;21106;-69
2022/12/29 09:50:41;;;;;;;15.90;8.85;;;;;;;6.58;50.96;100931.23;1773639;80;21304;-71
2022/12/29 09:53:16;;;;;;;13.50;8.60;;;;;;;6.59;51.00;100928.90;1748149;80;20955;-70
2022/12/29 09:55:49;;;;;;;13.15;8.05;;;;;;;6.62;50.94;100928.45;1765703;80;21692;-69
2022/12/29 09:58:29;;;;;;;13.35;7.92;;;;;;;6.67;51.05;100919.81;1758775;81;21481;-68
2022/12/29 10:01:04;;;;;;;15.25;8.15;;;;;;;6.69;50.89;100922.55;1768616;80;21057;-69
2022/12/29 10:03:51;;;;;;;11.80;7.42;;;;;;;6.71;51.00;100920.98;1762369;79;21142;-69
2022/12/29 10:06:32;;;;;;;11.28;7.55;;;;;;;6.77;51.10;100912.95;1761574;79;20990;-69
2022/12/29 10:09:19;;;;;;;13.50;8.53;;;;;;;6.87;51.04;100910.28;1778685;80;21496;-68
2022/12/29 10:12:06;;;;;;;12.47;7.65;;;;;;;6.93;50.87;100902.23;1761635;79;21444;-69
2022/12/29 10:14:39;;;;;;;12.40;8.03;;;;;;;6.96;50.62;100900.98;1768145;79;21323;-68
2022/12/29 10:17:42;;;;;;;11.95;7.45;;;;;;;6.97;50.66;100889.31;1766314;79;21482;-69
2022/12/29 10:20:50;;;;;;;13.32;8.28;;;;;;;6.97;50.64;100887.98;1776429;78;21002;-68
2022/12/29 10:23:38;;;;;;;12.40;8.38;;;;;;;6.96;50.51;100891.17;1694962;81;21042;-68
2022/12/29 10:26:04;;;;;;;13.03;8.55;;;;;;;7.00;50.60;100886.21;1756534;81;21029;-68
2022/12/29 10:28:57;;;;;;;13.10;8.28;;;;;;;7.04;50.69;100883.39;1725158;80;21032;-69
2022/12/29 10:31:27;;;;;;;12.05;7.85;;;;;;;7.07;50.61;100879.48;1774737;80;21139;-68
2022/12/29 10:33:57;;;;;;;12.15;8.23;;;;;;;7.11;50.46;100883.30;1768597;78;20990;-68
2022/12/29 10:36:35;;;;;;;15.60;8.83;;;;;;;7.10;50.47;100879.03;1760311;78;21596;-68
2022/12/29 10:39:26;;;;;;;12.43;8.10;;;;;;;7.13;50.35;100876.73;1760513;78;21021;-68
2022/12/29 10:42:07;;;;;;;13.50;9.13;;;;;;;7.11;50.01;100874.84;1708101;81;21002;-68
2022/12/29 10:44:34;;;;;;;14.28;8.23;;;;;;;7.05;49.84;100881.05;1758826;81;21249;-68
2022/12/29 10:47:07;;;;;;;13.68;7.90;;;;;;;7.01;50.13;100874.58;1758700;80;20978;-68
2022/12/29 10:49:39;;;;;;;12.82;7.97;;;;;;;7.07;50.40;100878.96;1730418;81;21088;-68
2022/12/29 10:52:05;;;;;;;10.45;7.37;;;;;;;7.15;50.33;100882.64;1783653;78;21034;-68
2022/12/29 10:54:49;;;;;;;11.93;8.55;;;;;;;7.15;50.37;100877.33;1758392;81;21025;-68
2022/12/29 10:57:36;;;;;;;13.72;9.00;;;;;;;7.19;50.44;100871.05;1761135;78;21268;-68
2022/12/29 11:00:20;;;;;;;14.07;8.65;;;;;;;7.24;50.42;100874.65;1758367;81;20994;-68
2022/12/29 11:03:14;;;;;;;13.22;8.80;;;;;;;7.30;50.40;100866.27;1758584;81;20954;-68
2022/12/29 11:06:07;;;;;;;13.05;8.43;;;;;;;7.31;50.27;100861.79;1778624;80;21038;-68
2022/12/29 11:08:41;;;;;;;11.97;7.78;;;;;;;7.35;50.19;100858.95;1785062;80;21013;-68
2022/12/29 11:11:09;;;;;;;15.20;8.80;;;;;;;7.33;50.19;100851.72;1787567;80;21142;-69
2022/12/29 11:13:53;;;;;;;13.30;9.33;;;;;;;7.32;50.21;100850.11;1783193;80;20931;-69
2022/12/29 11:16:33;;;;;;;15.30;9.13;;;;;;;7.31;50.31;100847.98;1758496;81;20978;-67
2022/12/29 11:19:01;;;;;;;13.58;9.08;;;;;;;7.32;50.35;100846.94;1758534;81;20931;-68
2022/12/29 11:21:41;;;;;;;13.53;8.63;;;;;;;7.33;50.44;100841.09;1758636;81;21018;-68
2022/12/29 11:24:27;;;;;;;16.32;8.95;;;;;;;7.35;50.43;100845.67;1758770;80;21245;-68
2022/12/29 11:27:02;;;;;;;13.80;8.90;;;;;;;7.32;50.45;100845.60;1780932;80;20931;-68
2022/12/29 11:29:41;;;;;;;12.78;8.10;;;;;;;7.32;50.59;100836.83;1786875;80;21425;-68
2022/12/29 11:33:14;;;;;;;13.03;8.43;;;;;;;7.34;50.63;100839.55;1776742;80;20986;-69
2022/12/29 11:35:43;;;;;;;13.20;8.75;;;;;;;7.33;50.62;100841.09;1758720;81;21615;-68
2022/12/29 11:38:22;;;;;;;13.50;9.08;;;;;;;7.34;50.74;100844.03;1758875;81;21118;-68
2022/12/29 11:40:48;;;;;;;12.85;8.05;;;;;;;7.32;50.57;100850.92;1768551;78;20992;-67
2022/12/29 11:43:34;;;;;;;13.50;9.05;;;;;;;7.29;50.70;100852.17;1789491;80;20997;-68
2022/12/29 11:46:03;;;;;;;12.68;8.00;;;;;;;7.30;50.62;100855.64;1777269;78;20950;-67
2022/12/29 11:48:39;;;;;;;14.40;8.75;;;;;;;7.25;50.86;100851.02;1757919;81;21634;-67
2022/12/29 11:51:06;;;;;;;15.63;9.35;;;;;;;7.27;50.95;100857.42;1782138;80;21124;-67
2022/12/29 11:53:46;;;;;;;13.93;9.10;;;;;;;7.28;51.00;100863.05;1764403;78;21069;-67
2022/12/29 11:56:19;;;;;;;12.28;8.83;;;;;;;7.27;50.96;100867.55;1730273;81;20997;-68
2022/12/29 11:58:49;;;;;;;13.62;8.98;;;;;;;7.23;51.05;100870.87;1758642;80;21093;-68
2022/12/29 12:01:29;;;;;;;13.45;8.93;;;;;;;7.19;51.11;100870.52;1782480;78;21116;-68
2022/12/29 12:04:13;;;;;;;15.28;8.75;;;;;;;7.19;51.19;100865.73;1788408;78;21213;-68
2022/12/29 12:06:45;;;;;;;15.93;8.53;;;;;;;7.19;51.26;100861.75;1775380;78;20935;-67
2022/12/29 12:09:22;;;;;;;13.53;9.00;;;;;;;7.19;51.31;100869.72;1758935;80;21082;-68
2022/12/29 12:11:48;;;;;;;14.58;9.23;;;;;;;7.20;51.32;100870.00;1761342;78;21417;-68
2022/12/29 12:14:29;;;;;;;12.63;8.50;;;;;;;7.20;51.36;100861.50;1761215;80;21083;-70
2022/12/29 12:17:11;;;;;;;12.63;8.15;;;;;;;7.22;51.36;100865.28;1749806;78;21312;-70
2022/12/29 12:19:56;;;;;;;12.13;8.10;;;;;;;7.22;51.34;100859.44;1714149;83;21078;-68
2022/12/29 12:22:36;;;;;;;15.88;9.10;;;;;;;7.20;51.37;100868.14;1696697;81;21499;-68
2022/12/29 12:25:23;;;;;;;11.97;7.90;;;;;;;7.19;51.29;100871.05;1696592;83;21498;-68
2022/12/29 12:28:35;;;;;;;16.20;8.85;;;;;;;7.13;51.32;100872.75;1696625;84;20972;-68
2022/12/29 12:31:04;;;;;;;14.53;9.63;;;;;;;7.10;51.32;100863.91;1716569;81;21316;-69
2022/12/29 12:33:39;;;;;;;14.30;9.25;;;;;;;7.09;51.15;100870.78;1722915;81;21017;-69
2022/12/29 12:36:28;;;;;;;16.48;9.28;;;;;;;7.04;51.04;100875.42;1708058;83;21027;-68
2022/12/29 12:39:27;;;;;;;14.13;8.60;;;;;;;7.04;51.12;100876.27;1707424;81;21655;-70
2022/12/29 12:42:45;;;;;;;14.33;8.70;;;;;;;7.12;51.06;100878.30;1698840;81;21047;-68